createdAt,value
2023-02-28T00:00:35.595Z,0.29
2023-02-28T00:01:38.882Z,0.09
2023-02-28T00:02:46.146Z,0.18
2023-02-28T00:03:49.806Z,0.40
2023-02-28T00:04:54.070Z,0.44
2023-02-28T00:05:57.713Z,0.48
2023-02-28T00:07:01.531Z,0.65
2023-02-28T00:08:06.103Z,0.79
2023-02-28T00:09:09.688Z,0.75
2023-02-28T00:10:18.628Z,0.82
2023-02-28T00:11:22.132Z,0.73
2023-02-28T00:12:28.204Z,0.85
2023-02-28T00:13:31.960Z,0.77
2023-02-28T00:14:35.666Z,0.78
2023-02-28T00:15:38.807Z,0.80
2023-02-28T00:16:44.350Z,0.84
2023-02-28T00:17:47.650Z,0.56
2023-02-28T00:18:52.947Z,0.55
2023-02-28T00:19:56.436Z,0.64
2023-02-28T00:21:00.483Z,0.83
2023-02-28T00:22:04.198Z,0.75
2023-02-28T00:23:07.892Z,0.63
2023-02-28T00:24:11.179Z,0.74
2023-02-28T00:25:15.111Z,0.83
2023-02-28T00:26:21.944Z,0.80
2023-02-28T00:27:26.182Z,0.94
2023-02-28T00:28:32.622Z,1.05
2023-02-28T00:29:37.902Z,0.91
2023-02-28T00:30:41.831Z,0.69
2023-02-28T00:31:45.465Z,0.78
2023-02-28T00:32:50.496Z,0.59
2023-02-28T00:33:54.021Z,0.65
2023-02-28T00:35:01.382Z,0.83
2023-02-28T00:36:07.905Z,0.98
2023-02-28T00:37:16.849Z,0.97
2023-02-28T00:38:19.716Z,0.90
2023-02-28T00:39:22.869Z,1.01
2023-02-28T00:40:26.031Z,0.96
2023-02-28T00:41:29.588Z,1.01
2023-02-28T00:42:34.897Z,0.93
2023-02-28T00:43:42.198Z,0.79
2023-02-28T00:44:46.284Z,0.83
2023-02-28T00:45:49.803Z,0.87
2023-02-28T00:46:55.603Z,0.78
2023-02-28T00:48:00.745Z,0.58
2023-02-28T00:49:04.491Z,0.44
2023-02-28T00:50:09.775Z,0.40
2023-02-28T00:51:14.466Z,0.53
2023-02-28T00:52:18.446Z,0.84
2023-02-28T00:53:21.960Z,0.97
2023-02-28T00:54:25.663Z,0.92
2023-02-28T00:55:28.579Z,0.82
2023-02-28T00:56:32.049Z,0.79
2023-02-28T00:57:35.772Z,0.83
2023-02-28T00:58:40.915Z,0.76
2023-02-28T00:59:48.419Z,0.82
2023-02-28T01:00:54.704Z,0.76
2023-02-28T01:01:58.457Z,0.82
2023-02-28T01:03:06.030Z,0.80
2023-02-28T01:04:09.240Z,0.69
2023-02-28T01:05:13.050Z,0.50
2023-02-28T01:06:15.672Z,0.74
2023-02-28T01:07:19.149Z,0.75
2023-02-28T01:08:27.210Z,0.87
2023-02-28T01:09:29.752Z,0.73
2023-02-28T01:10:35.587Z,0.58
2023-02-28T01:11:39.507Z,0.68
2023-02-28T01:12:43.012Z,0.73
2023-02-28T01:13:46.103Z,0.87
2023-02-28T01:14:50.688Z,0.87
2023-02-28T01:15:56.842Z,0.87
2023-02-28T01:17:02.992Z,0.66
2023-02-28T01:18:06.906Z,0.77
2023-02-28T01:19:09.588Z,0.81
2023-02-28T01:20:14.024Z,0.70
2023-02-28T01:21:22.372Z,0.83
2023-02-28T01:22:27.084Z,0.90
2023-02-28T01:23:31.770Z,0.94
2023-02-28T01:24:35.555Z,0.76
2023-02-28T01:25:39.430Z,0.78
2023-02-28T01:26:42.877Z,0.52
2023-02-28T01:27:46.193Z,0.55
2023-02-28T01:28:50.526Z,0.78
2023-02-28T01:29:55.011Z,0.89
2023-02-28T01:30:57.768Z,1.13
2023-02-28T01:32:00.625Z,1.25
2023-02-28T01:33:04.337Z,1.24
2023-02-28T01:34:10.973Z,1.02
2023-02-28T01:35:14.079Z,0.69
2023-02-28T01:36:24.881Z,0.60
2023-02-28T01:37:28.642Z,0.81
2023-02-28T01:38:32.404Z,0.76
2023-02-28T01:39:34.753Z,0.53
2023-02-28T01:40:40.804Z,0.72
2023-02-28T01:41:45.011Z,0.58
2023-02-28T01:42:49.950Z,0.70
2023-02-28T01:44:01.097Z,0.77
2023-02-28T01:45:14.321Z,0.93
2023-02-28T01:46:18.391Z,0.49
2023-02-28T01:47:24.988Z,0.67
2023-02-28T01:48:34.617Z,0.64
2023-02-28T01:49:38.373Z,0.76
2023-02-28T01:50:44.593Z,0.93
2023-02-28T01:51:56.455Z,0.86
2023-02-28T01:53:03.018Z,1.02
2023-02-28T01:54:13.070Z,1.18
2023-02-28T01:55:18.353Z,0.95
2023-02-28T01:56:22.800Z,0.32
2023-02-28T01:57:32.664Z,0.41
2023-02-28T01:58:38.152Z,0.55
2023-02-28T01:59:52.232Z,0.48
2023-02-28T02:00:57.872Z,0.55
2023-02-28T02:02:03.116Z,0.68
2023-02-28T02:03:09.937Z,0.71
2023-02-28T02:04:13.383Z,0.73
2023-02-28T02:05:20.283Z,0.74
2023-02-28T02:06:23.718Z,0.80
2023-02-28T02:07:29.285Z,0.78
2023-02-28T02:08:33.214Z,0.72
2023-02-28T02:09:36.720Z,0.74
2023-02-28T02:10:47.563Z,0.70
2023-02-28T02:11:51.024Z,0.65
2023-02-28T02:13:12.078Z,0.67
2023-02-28T02:14:21.858Z,0.64
2023-02-28T02:15:29.846Z,0.63
2023-02-28T02:16:41.321Z,0.57
2023-02-28T02:17:48.458Z,0.66
2023-02-28T02:19:11.489Z,0.48
2023-02-28T02:20:39.034Z,0.46
2023-02-28T02:21:50.477Z,0.76
2023-02-28T02:23:12.351Z,0.56
2023-02-28T02:24:20.136Z,0.60
2023-02-28T02:25:26.571Z,0.79
2023-02-28T02:26:36.548Z,0.71
2023-02-28T02:28:01.146Z,0.63
2023-02-28T02:29:24.820Z,0.32
2023-02-28T02:30:31.565Z,0.39
2023-02-28T02:31:53.935Z,0.27
2023-02-28T02:33:16.602Z,0.28
2023-02-28T02:34:38.888Z,0.48
2023-02-28T02:35:44.235Z,0.57
2023-02-28T02:36:53.770Z,0.30
2023-02-28T02:38:02.396Z,0.31
2023-02-28T02:39:24.773Z,0.25
2023-02-28T02:40:30.671Z,0.15
2023-02-28T02:41:38.562Z,0.29
2023-02-28T02:43:03.072Z,0.23
2023-02-28T02:44:12.731Z,0.19
2023-02-28T02:45:16.856Z,0.46
2023-02-28T02:46:41.655Z,0.29
2023-02-28T02:47:46.582Z,0.35
2023-02-28T02:48:51.409Z,0.21
2023-02-28T02:49:55.531Z,0.27
2023-02-28T02:51:02.422Z,0.41
2023-02-28T02:52:07.797Z,0.24
2023-02-28T02:53:12.551Z,0.15
2023-02-28T02:54:18.335Z,0.25
2023-02-28T02:55:22.362Z,0.48
2023-02-28T02:56:27.022Z,0.53
2023-02-28T02:57:42.631Z,0.55
2023-02-28T02:58:50.346Z,0.39
2023-02-28T02:59:54.757Z,0.25
2023-02-28T03:01:04.394Z,-0.01
2023-02-28T03:02:09.510Z,0.23
2023-02-28T03:03:14.058Z,0.42
2023-02-28T03:04:20.889Z,0.44
2023-02-28T03:05:28.833Z,0.61
2023-02-28T03:06:32.506Z,0.61
2023-02-28T03:07:36.011Z,0.46
2023-02-28T03:08:39.942Z,0.38
2023-02-28T03:09:44.481Z,0.21
2023-02-28T03:10:52.887Z,0.30
2023-02-28T03:11:57.973Z,0.54
2023-02-28T03:13:08.047Z,0.31
2023-02-28T03:14:23.673Z,0.09
2023-02-28T03:15:32.310Z,-0.11
2023-02-28T03:16:54.604Z,0.12
2023-02-28T03:18:03.771Z,0.34
2023-02-28T03:19:27.414Z,0.06
2023-02-28T03:20:38.337Z,-0.21
2023-02-28T03:22:01.060Z,-0.44
2023-02-28T03:23:21.384Z,-0.62
2023-02-28T03:24:28.019Z,-0.40
2023-02-28T03:25:36.475Z,-0.30
2023-02-28T03:26:43.375Z,-0.48
2023-02-28T03:27:52.833Z,-0.34
2023-02-28T03:28:59.274Z,-0.23
2023-02-28T03:30:04.545Z,0.03
2023-02-28T03:31:18.564Z,-0.13
2023-02-28T03:32:25.809Z,0.02
2023-02-28T03:33:33.350Z,-0.15
2023-02-28T03:34:41.868Z,-0.44
2023-02-28T03:35:46.138Z,-0.11
2023-02-28T03:36:51.523Z,-0.17
2023-02-28T03:37:55.919Z,-0.32
2023-02-28T03:39:13.009Z,-0.09
2023-02-28T03:40:19.360Z,-0.06
2023-02-28T03:41:23.469Z,0.01
2023-02-28T03:42:31.775Z,0.28
2023-02-28T03:43:38.204Z,0.35
2023-02-28T03:44:47.568Z,0.46
2023-02-28T03:45:53.119Z,0.27
2023-02-28T03:47:04.305Z,-0.14
2023-02-28T03:48:18.231Z,0.05
2023-02-28T03:49:23.005Z,-0.11
2023-02-28T03:50:27.236Z,-0.18
2023-02-28T03:51:30.645Z,0.04
2023-02-28T03:52:39.317Z,0.03
2023-02-28T03:53:47.277Z,0.16
2023-02-28T03:54:52.407Z,0.21
2023-02-28T03:55:58.435Z,0.07
2023-02-28T03:57:03.504Z,0.16
2023-02-28T03:58:25.097Z,0.33
2023-02-28T03:59:36.743Z,0.33
2023-02-28T04:00:42.238Z,0.25
2023-02-28T04:01:51.268Z,0.33
2023-02-28T04:02:57.077Z,0.10
2023-02-28T04:04:01.416Z,0.15
2023-02-28T04:05:04.935Z,0.08
2023-02-28T04:06:09.916Z,0.13
2023-02-28T04:07:13.179Z,0.29
2023-02-28T04:08:17.628Z,0.28
2023-02-28T04:09:22.809Z,0.19
2023-02-28T04:10:26.213Z,0.25
2023-02-28T04:11:31.331Z,0.24
2023-02-28T04:12:35.094Z,-0.05
2023-02-28T04:13:38.382Z,-0.15
2023-02-28T04:14:43.026Z,0.14
2023-02-28T04:15:46.455Z,-0.12
2023-02-28T04:16:49.978Z,-0.07
2023-02-28T04:17:54.175Z,0.12
2023-02-28T04:19:04.139Z,-0.01
2023-02-28T04:20:10.744Z,0.12
2023-02-28T04:21:14.240Z,0.10
2023-02-28T04:22:19.387Z,0.16
2023-02-28T04:23:22.817Z,0.13
2023-02-28T04:24:27.021Z,0.38
2023-02-28T04:25:33.229Z,0.39
2023-02-28T04:26:40.598Z,0.29
2023-02-28T04:27:44.712Z,0.55
2023-02-28T04:28:49.143Z,0.62
2023-02-28T04:29:54.261Z,0.56
2023-02-28T04:31:02.767Z,0.53
2023-02-28T04:32:06.705Z,0.53
2023-02-28T04:33:10.137Z,0.26
2023-02-28T04:34:13.700Z,0.19
2023-02-28T04:35:17.651Z,0.37
2023-02-28T04:36:20.632Z,0.12
2023-02-28T04:37:24.737Z,0.12
2023-02-28T04:38:30.864Z,0.16
2023-02-28T04:39:36.142Z,0.12
2023-02-28T04:40:43.617Z,0.15
2023-02-28T04:41:48.687Z,0.08
2023-02-28T04:42:51.994Z,-0.19
2023-02-28T04:43:56.249Z,-0.15
2023-02-28T04:44:59.853Z,-0.03
2023-02-28T04:46:04.176Z,0.15
2023-02-28T04:47:10.383Z,0.23
2023-02-28T04:48:13.685Z,0.26
2023-02-28T04:49:17.189Z,0.27
2023-02-28T04:50:21.559Z,0.41
2023-02-28T04:51:27.974Z,0.51
2023-02-28T04:52:31.465Z,0.62
2023-02-28T04:53:35.596Z,0.52
2023-02-28T04:54:40.608Z,0.61
2023-02-28T04:55:44.331Z,0.56
2023-02-28T04:56:48.814Z,0.48
2023-02-28T04:57:52.123Z,0.43
2023-02-28T04:58:57.611Z,0.26
2023-02-28T05:00:01.130Z,0.28
2023-02-28T05:01:05.977Z,0.14
2023-02-28T05:02:10.671Z,0.08
2023-02-28T05:03:14.243Z,0.00
2023-02-28T05:04:19.002Z,0.13
2023-02-28T05:05:24.210Z,0.19
2023-02-28T05:06:28.105Z,0.05
2023-02-28T05:07:31.399Z,0.26
2023-02-28T05:08:35.121Z,0.40
2023-02-28T05:09:38.300Z,0.61
2023-02-28T05:10:42.117Z,0.45
2023-02-28T05:11:45.623Z,0.56
2023-02-28T05:12:48.714Z,0.62
2023-02-28T05:13:54.095Z,0.40
2023-02-28T05:14:59.155Z,0.28
2023-02-28T05:16:03.989Z,0.23
2023-02-28T05:17:07.342Z,0.39
2023-02-28T05:18:12.495Z,0.36
2023-02-28T05:19:17.365Z,0.33
2023-02-28T05:20:20.402Z,0.25
2023-02-28T05:21:26.456Z,0.33
2023-02-28T05:22:30.720Z,0.26
2023-02-28T05:23:35.457Z,0.36
2023-02-28T05:24:39.905Z,0.24
2023-02-28T05:25:43.718Z,0.19
2023-02-28T05:26:49.836Z,0.14
2023-02-28T05:27:58.230Z,0.11
2023-02-28T05:29:01.556Z,0.09
2023-02-28T05:30:06.502Z,0.28
2023-02-28T05:31:13.267Z,0.41
2023-02-28T05:32:18.355Z,0.51
2023-02-28T05:33:22.374Z,0.57
2023-02-28T05:34:25.749Z,0.34
2023-02-28T05:35:30.024Z,0.26
2023-02-28T05:36:34.492Z,0.23
2023-02-28T05:37:37.412Z,0.45
2023-02-28T05:38:40.187Z,0.58
2023-02-28T05:39:43.371Z,0.47
2023-02-28T05:40:47.622Z,0.49
2023-02-28T05:41:50.805Z,0.51
2023-02-28T05:42:54.454Z,0.38
2023-02-28T05:43:58.647Z,0.50
2023-02-28T05:45:01.014Z,0.62
2023-02-28T05:46:08.418Z,0.76
2023-02-28T05:47:13.237Z,0.68
2023-02-28T05:48:16.562Z,0.57
2023-02-28T05:49:18.898Z,0.46
2023-02-28T05:50:23.476Z,0.51
2023-02-28T05:51:27.159Z,0.53
2023-02-28T05:52:37.259Z,0.40
2023-02-28T05:53:40.487Z,0.55
2023-02-28T05:54:43.813Z,0.76
2023-02-28T05:55:47.127Z,0.75
2023-02-28T05:56:50.143Z,0.93
2023-02-28T05:57:53.318Z,1.04
2023-02-28T05:58:56.924Z,0.78
2023-02-28T06:00:00.313Z,0.73
2023-02-28T06:01:04.342Z,0.59
2023-02-28T06:02:08.708Z,0.58
2023-02-28T06:03:12.449Z,0.77
2023-02-28T06:04:31.556Z,1.00
2023-02-28T06:05:30.081Z,0.69
2023-02-28T06:06:37.179Z,0.58
2023-02-28T06:07:39.960Z,0.65
2023-02-28T06:08:44.036Z,0.68
2023-02-28T06:09:51.383Z,0.40
2023-02-28T06:10:53.575Z,0.41
2023-02-28T06:11:57.607Z,0.48
2023-02-28T06:13:05.716Z,0.51
2023-02-28T06:14:10.127Z,0.62
2023-02-28T06:15:17.154Z,0.81
2023-02-28T06:16:21.326Z,0.69
2023-02-28T06:17:25.129Z,0.62
2023-02-28T06:18:31.721Z,0.90
2023-02-28T06:19:35.573Z,1.01
2023-02-28T06:20:41.744Z,0.96
2023-02-28T06:21:45.205Z,0.95
2023-02-28T06:22:50.524Z,0.95
2023-02-28T06:23:56.410Z,1.21
2023-02-28T06:24:59.168Z,1.14
2023-02-28T06:26:04.438Z,0.93
2023-02-28T06:27:07.942Z,1.00
2023-02-28T06:28:12.101Z,1.11
2023-02-28T06:29:21.010Z,0.65
2023-02-28T06:30:25.170Z,0.70
2023-02-28T06:31:33.781Z,0.93
2023-02-28T06:32:36.868Z,0.94
2023-02-28T06:33:39.847Z,0.96
2023-02-28T06:34:43.200Z,1.31
2023-02-28T06:35:48.305Z,1.37
2023-02-28T06:36:52.382Z,1.68
2023-02-28T06:37:55.740Z,1.87
2023-02-28T06:38:59.354Z,1.65
2023-02-28T06:40:02.642Z,1.46
2023-02-28T06:41:07.770Z,1.34
2023-02-28T06:42:11.010Z,1.41
2023-02-28T06:43:15.140Z,1.40
2023-02-28T06:44:20.736Z,1.48
2023-02-28T06:45:22.883Z,1.48
2023-02-28T06:46:26.094Z,1.52
2023-02-28T06:47:29.694Z,1.62
2023-02-28T06:48:35.836Z,1.72
2023-02-28T06:49:38.505Z,1.99
2023-02-28T06:50:42.508Z,1.83
2023-02-28T06:51:48.517Z,1.59
2023-02-28T06:52:54.941Z,1.80
2023-02-28T06:53:58.340Z,1.92
2023-02-28T06:55:02.217Z,1.79
2023-02-28T06:56:11.646Z,1.89
2023-02-28T06:57:15.577Z,1.64
2023-02-28T06:58:21.865Z,1.60
2023-02-28T06:59:26.136Z,1.72
2023-02-28T07:00:32.422Z,1.70
2023-02-28T07:01:34.834Z,1.73
2023-02-28T07:02:39.328Z,1.64
2023-02-28T07:03:42.008Z,1.52
2023-02-28T07:04:47.316Z,1.30
2023-02-28T07:05:50.895Z,1.13
2023-02-28T07:06:56.938Z,1.29
2023-02-28T07:08:01.275Z,1.43
2023-02-28T07:09:06.778Z,1.35
2023-02-28T07:10:12.435Z,1.24
2023-02-28T07:11:16.044Z,1.11
2023-02-28T07:12:20.297Z,1.17
2023-02-28T07:13:23.888Z,1.46
2023-02-28T07:14:28.774Z,1.44
2023-02-28T07:15:32.674Z,1.25
2023-02-28T07:16:37.323Z,1.25
2023-02-28T07:17:42.115Z,1.34
2023-02-28T07:18:46.007Z,1.66
2023-02-28T07:19:49.725Z,1.63
2023-02-28T07:20:53.665Z,1.71
2023-02-28T07:21:57.974Z,1.41
2023-02-28T07:23:02.958Z,1.50
2023-02-28T07:24:06.878Z,1.39
2023-02-28T07:25:11.533Z,1.46
2023-02-28T07:26:16.840Z,1.62
2023-02-28T07:27:22.237Z,1.56
2023-02-28T07:28:28.995Z,1.44
2023-02-28T07:29:32.546Z,1.27
2023-02-28T07:30:36.158Z,1.12
2023-02-28T07:31:39.690Z,1.29
2023-02-28T07:32:45.308Z,1.55
2023-02-28T07:33:48.573Z,1.56
2023-02-28T07:34:52.057Z,1.80
2023-02-28T07:35:57.497Z,1.73
2023-02-28T07:37:01.897Z,1.93
2023-02-28T07:38:04.961Z,2.08
2023-02-28T07:39:08.481Z,1.73
2023-02-28T07:40:15.614Z,1.67
2023-02-28T07:41:20.512Z,1.72
2023-02-28T07:42:23.895Z,1.75
2023-02-28T07:43:28.860Z,1.83
2023-02-28T07:44:34.077Z,1.73
2023-02-28T07:45:38.215Z,1.29
2023-02-28T07:46:43.435Z,1.04
2023-02-28T07:47:48.629Z,0.96
2023-02-28T07:48:51.209Z,0.93
2023-02-28T07:49:54.595Z,0.78
2023-02-28T07:50:59.782Z,1.11
2023-02-28T07:52:04.742Z,1.05
2023-02-28T07:53:07.969Z,1.09
2023-02-28T07:54:12.377Z,0.97
2023-02-28T07:55:18.704Z,0.98
2023-02-28T07:56:22.325Z,0.80
2023-02-28T07:57:27.082Z,1.10
2023-02-28T07:58:31.856Z,1.24
2023-02-28T07:59:35.556Z,1.15
2023-02-28T08:00:39.206Z,1.35
2023-02-28T08:01:42.785Z,1.33
2023-02-28T08:02:46.221Z,1.49
2023-02-28T08:03:49.674Z,1.60
2023-02-28T08:04:52.830Z,1.46
2023-02-28T08:05:56.309Z,1.47
2023-02-28T08:07:00.299Z,1.66
2023-02-28T08:08:03.559Z,1.51
2023-02-28T08:09:07.010Z,1.32
2023-02-28T08:10:11.766Z,1.38
2023-02-28T08:11:18.589Z,1.27
2023-02-28T08:12:21.676Z,1.48
2023-02-28T08:13:25.389Z,1.81
2023-02-28T08:14:28.582Z,1.80
2023-02-28T08:15:32.724Z,1.89
2023-02-28T08:16:36.027Z,2.10
2023-02-28T08:17:39.526Z,2.05
2023-02-28T08:18:44.387Z,1.85
2023-02-28T08:19:48.212Z,1.72
2023-02-28T08:20:52.538Z,1.67
2023-02-28T08:21:55.181Z,1.70
2023-02-28T08:22:58.823Z,1.60
2023-02-28T08:24:01.819Z,1.35
2023-02-28T08:25:05.722Z,1.38
2023-02-28T08:26:12.789Z,1.55
2023-02-28T08:27:16.224Z,1.67
2023-02-28T08:28:18.379Z,1.73
2023-02-28T08:29:24.137Z,1.99
2023-02-28T08:30:27.535Z,2.16
2023-02-28T08:31:31.286Z,2.35
2023-02-28T08:32:34.337Z,2.21
2023-02-28T08:33:40.534Z,2.24
2023-02-28T08:34:44.478Z,2.48
2023-02-28T08:35:50.020Z,2.21
2023-02-28T08:36:54.862Z,2.31
2023-02-28T08:38:01.470Z,1.60
2023-02-28T08:39:04.998Z,1.66
2023-02-28T08:40:10.505Z,1.80
2023-02-28T08:41:17.193Z,2.06
2023-02-28T08:42:20.610Z,2.51
2023-02-28T08:43:26.970Z,2.81
2023-02-28T08:44:30.544Z,2.98
2023-02-28T08:45:38.018Z,2.87
2023-02-28T08:46:41.732Z,2.83
2023-02-28T08:47:45.144Z,2.77
2023-02-28T08:48:48.226Z,2.82
2023-02-28T08:49:51.940Z,2.50
2023-02-28T08:51:07.233Z,2.54
2023-02-28T08:52:06.344Z,2.98
2023-02-28T08:53:10.070Z,3.29
2023-02-28T08:54:15.454Z,3.29
2023-02-28T08:55:19.752Z,3.06
2023-02-28T08:56:22.567Z,2.80
2023-02-28T08:57:27.326Z,2.99
2023-02-28T08:58:30.937Z,3.13
2023-02-28T08:59:34.041Z,2.93
2023-02-28T09:00:38.282Z,3.04
2023-02-28T09:01:43.228Z,3.16
2023-02-28T09:02:46.511Z,3.01
2023-02-28T09:03:50.074Z,2.85
2023-02-28T09:04:53.635Z,2.98
2023-02-28T09:06:01.220Z,2.74
2023-02-28T09:07:04.851Z,2.61
2023-02-28T09:08:10.209Z,2.47
2023-02-28T09:09:14.344Z,1.98
2023-02-28T09:10:17.634Z,1.89
2023-02-28T09:11:21.662Z,1.74
2023-02-28T09:12:26.319Z,1.49
2023-02-28T09:13:29.814Z,1.76
2023-02-28T09:14:33.149Z,2.26
2023-02-28T09:15:38.710Z,2.11
2023-02-28T09:16:44.085Z,2.36
2023-02-28T09:17:48.705Z,2.28
2023-02-28T09:18:51.977Z,2.63
2023-02-28T09:19:55.229Z,2.56
2023-02-28T09:21:01.836Z,2.39
2023-02-28T09:22:05.266Z,2.30
2023-02-28T09:23:09.408Z,2.10
2023-02-28T09:24:14.471Z,2.30
2023-02-28T09:25:17.881Z,2.30
2023-02-28T09:26:25.562Z,2.23
2023-02-28T09:27:28.710Z,2.14
2023-02-28T09:28:33.073Z,2.19
2023-02-28T09:29:36.815Z,1.98
2023-02-28T09:30:39.505Z,2.27
2023-02-28T09:31:43.080Z,2.23
2023-02-28T09:32:48.229Z,2.56
2023-02-28T09:33:52.760Z,2.64
2023-02-28T09:35:02.169Z,2.61
2023-02-28T09:36:05.404Z,2.79
2023-02-28T09:37:08.785Z,2.92
2023-02-28T09:38:14.358Z,2.74
2023-02-28T09:39:18.206Z,3.04
2023-02-28T09:40:23.335Z,2.89
2023-02-28T09:41:30.852Z,3.11
2023-02-28T09:42:35.592Z,3.31
2023-02-28T09:43:42.824Z,3.14
2023-02-28T09:44:48.775Z,2.53
2023-02-28T09:45:58.556Z,2.31
2023-02-28T09:47:09.231Z,2.65
2023-02-28T09:48:18.450Z,2.63
2023-02-28T09:49:28.167Z,2.35
2023-02-28T09:50:33.852Z,2.30
2023-02-28T09:51:50.163Z,2.05
2023-02-28T09:52:53.819Z,1.94
2023-02-28T09:54:01.920Z,2.44
2023-02-28T09:55:05.077Z,2.76
2023-02-28T09:56:14.038Z,3.03
2023-02-28T09:57:18.065Z,3.06
2023-02-28T09:58:22.584Z,3.23
2023-02-28T09:59:27.995Z,3.85
2023-02-28T10:00:38.619Z,4.07
2023-02-28T10:01:50.897Z,3.74
2023-02-28T10:03:01.712Z,4.08
2023-02-28T10:04:22.268Z,3.93
2023-02-28T10:05:30.493Z,3.68
2023-02-28T10:06:35.537Z,4.00
2023-02-28T10:07:40.782Z,3.71
2023-02-28T10:08:51.888Z,3.87
2023-02-28T10:09:57.016Z,4.00
2023-02-28T10:11:03.966Z,3.85
2023-02-28T10:12:07.886Z,3.35
2023-02-28T10:13:15.089Z,3.18
2023-02-28T10:14:21.111Z,3.59
2023-02-28T10:15:28.581Z,3.71
2023-02-28T10:16:34.022Z,3.27
2023-02-28T10:17:49.306Z,3.10
2023-02-28T10:18:52.073Z,3.14
2023-02-28T10:20:01.900Z,3.44
2023-02-28T10:21:07.448Z,3.65
2023-02-28T10:22:18.670Z,3.26
2023-02-28T10:23:23.480Z,3.33
2023-02-28T10:24:37.275Z,3.70
2023-02-28T10:25:40.439Z,4.03
2023-02-28T10:26:45.416Z,4.33
2023-02-28T10:27:52.640Z,4.04
2023-02-28T10:28:55.360Z,4.47
2023-02-28T10:30:03.870Z,4.73
2023-02-28T10:31:09.120Z,3.89
2023-02-28T10:32:13.302Z,4.37
2023-02-28T10:33:19.239Z,4.38
2023-02-28T10:34:22.393Z,4.12
2023-02-28T10:35:26.112Z,4.28
2023-02-28T10:36:30.320Z,4.78
2023-02-28T10:37:33.415Z,5.11
2023-02-28T10:38:38.026Z,5.16
2023-02-28T10:39:47.049Z,4.74
2023-02-28T10:40:50.628Z,4.70
2023-02-28T10:41:53.936Z,4.42
2023-02-28T10:42:59.113Z,4.15
2023-02-28T10:44:16.289Z,4.23
2023-02-28T10:45:19.715Z,4.63
2023-02-28T10:46:29.254Z,4.80
2023-02-28T10:47:35.108Z,4.73
2023-02-28T10:48:43.727Z,5.01
2023-02-28T10:49:50.764Z,5.26
2023-02-28T10:50:57.895Z,5.47
2023-02-28T10:52:01.940Z,5.73
2023-02-28T10:53:09.973Z,5.51
2023-02-28T10:54:18.386Z,5.14
2023-02-28T10:55:30.120Z,4.68
2023-02-28T10:56:33.380Z,4.31
2023-02-28T10:57:38.580Z,4.06
2023-02-28T10:59:01.834Z,3.59
2023-02-28T11:00:09.582Z,3.81
2023-02-28T11:01:17.451Z,4.29
2023-02-28T11:02:21.951Z,4.65
2023-02-28T11:03:29.711Z,4.62
2023-02-28T11:04:34.502Z,4.66
2023-02-28T11:05:37.338Z,4.29
2023-02-28T11:06:41.727Z,4.18
2023-02-28T11:07:53.315Z,4.48
2023-02-28T11:08:56.395Z,4.45
2023-02-28T11:09:58.978Z,4.58
2023-02-28T11:11:05.214Z,3.81
2023-02-28T11:12:11.320Z,3.86
2023-02-28T11:13:21.038Z,3.89
2023-02-28T11:14:26.074Z,3.68
2023-02-28T11:15:32.945Z,3.86
2023-02-28T11:16:38.191Z,3.69
2023-02-28T11:17:44.230Z,3.76
2023-02-28T11:18:54.058Z,3.80
2023-02-28T11:19:59.326Z,4.07
2023-02-28T11:21:02.542Z,4.39
2023-02-28T11:22:05.801Z,4.40
2023-02-28T11:23:10.876Z,4.41
2023-02-28T11:24:16.008Z,4.13
2023-02-28T11:25:28.511Z,3.67
2023-02-28T11:26:39.481Z,3.38
2023-02-28T11:27:49.795Z,3.63
2023-02-28T11:28:55.745Z,3.48
2023-02-28T11:30:00.078Z,3.63
2023-02-28T11:31:06.401Z,3.86
2023-02-28T11:32:12.770Z,3.95
2023-02-28T11:33:26.630Z,3.94
2023-02-28T11:34:29.599Z,3.67
2023-02-28T11:35:36.968Z,3.52
2023-02-28T11:36:43.545Z,3.88
2023-02-28T11:37:50.777Z,4.07
2023-02-28T11:38:58.964Z,3.78
2023-02-28T11:40:02.271Z,3.51
2023-02-28T11:41:26.619Z,3.39
2023-02-28T11:42:40.629Z,3.72
2023-02-28T11:43:53.746Z,3.70
2023-02-28T11:45:12.061Z,3.60
2023-02-28T11:46:36.025Z,3.77
2023-02-28T11:47:45.601Z,3.66
2023-02-28T11:49:00.291Z,3.89
2023-02-28T11:51:32.004Z,4.13
2023-02-28T11:52:37.212Z,4.18
2023-02-28T11:53:53.977Z,4.54
2023-02-28T11:55:16.359Z,4.42
2023-02-28T11:56:33.789Z,4.39
2023-02-28T11:57:38.965Z,4.65
2023-02-28T11:58:52.159Z,4.32
2023-02-28T12:00:21.096Z,4.13
2023-02-28T12:01:29.550Z,4.35
2023-02-28T12:02:56.889Z,4.38
2023-02-28T12:04:03.319Z,4.65
2023-02-28T12:05:14.666Z,4.53
2023-02-28T12:06:29.541Z,4.65
2023-02-28T12:07:34.726Z,4.44
2023-02-28T12:08:44.854Z,4.84
2023-02-28T12:09:56.147Z,5.14
2023-02-28T12:11:13.440Z,4.76
2023-02-28T12:12:20.076Z,4.49
2023-02-28T12:13:26.496Z,4.77
2023-02-28T12:14:31.895Z,5.09
2023-02-28T12:15:44.380Z,4.92
2023-02-28T12:16:57.080Z,4.68
2023-02-28T12:18:18.965Z,5.00
2023-02-28T12:19:23.770Z,5.30
2023-02-28T12:20:28.403Z,5.30
2023-02-28T12:21:51.509Z,5.43
2023-02-28T12:23:03.489Z,5.14
2023-02-28T12:24:25.581Z,5.06
2023-02-28T12:26:58.600Z,4.75
2023-02-28T12:28:03.981Z,4.35
2023-02-28T12:29:08.859Z,4.51
2023-02-28T12:30:24.702Z,4.20
2023-02-28T12:31:29.632Z,4.07
2023-02-28T12:32:35.622Z,4.02
2023-02-28T12:33:46.006Z,4.26
2023-02-28T12:34:52.794Z,4.39
2023-02-28T12:35:57.863Z,4.22
2023-02-28T12:37:03.250Z,4.31
2023-02-28T12:38:07.589Z,4.41
2023-02-28T12:39:12.870Z,4.43
2023-02-28T12:40:26.074Z,4.79
2023-02-28T12:41:40.353Z,4.90
2023-02-28T12:42:51.698Z,5.16
2023-02-28T12:43:56.969Z,4.76
2023-02-28T12:45:02.363Z,3.81
2023-02-28T12:46:07.896Z,3.80
2023-02-28T12:47:13.874Z,3.48
2023-02-28T12:48:22.091Z,3.58
2023-02-28T12:49:40.598Z,3.55
2023-02-28T12:50:45.059Z,3.89
2023-02-28T12:51:49.080Z,4.01
2023-02-28T12:52:57.001Z,3.87
2023-02-28T12:54:06.629Z,4.14
2023-02-28T12:55:27.262Z,4.59
2023-02-28T12:56:37.465Z,4.65
2023-02-28T12:57:43.685Z,4.66
2023-02-28T12:58:51.774Z,4.68
2023-02-28T13:00:03.230Z,4.09
2023-02-28T13:01:08.457Z,3.70
2023-02-28T13:02:26.324Z,3.42
2023-02-28T13:03:37.044Z,3.26
2023-02-28T13:04:43.506Z,3.33
2023-02-28T13:05:48.127Z,3.71
2023-02-28T13:07:05.727Z,3.61
2023-02-28T13:08:10.176Z,3.71
2023-02-28T13:09:14.611Z,4.09
2023-02-28T13:10:21.054Z,4.17
2023-02-28T13:11:29.149Z,4.14
2023-02-28T13:12:32.644Z,4.15
2023-02-28T13:13:36.257Z,4.17
2023-02-28T13:14:39.459Z,4.35
2023-02-28T13:15:44.615Z,4.41
2023-02-28T13:16:59.469Z,4.14
2023-02-28T13:18:02.609Z,4.20
2023-02-28T13:19:13.209Z,4.40
2023-02-28T13:20:18.582Z,4.38
2023-02-28T13:21:26.275Z,4.24
2023-02-28T13:22:43.983Z,4.30
2023-02-28T13:23:54.511Z,4.19
2023-02-28T13:24:59.770Z,4.14
2023-02-28T13:26:05.528Z,4.16
2023-02-28T13:27:11.501Z,3.80
2023-02-28T13:28:15.563Z,3.77
2023-02-28T13:29:20.527Z,3.84
2023-02-28T13:30:42.287Z,4.08
2023-02-28T13:32:09.980Z,3.97
2023-02-28T13:33:29.031Z,4.13
2023-02-28T13:34:32.566Z,3.91
2023-02-28T13:35:37.145Z,3.81
2023-02-28T13:36:40.573Z,3.75
2023-02-28T13:37:45.777Z,3.61
2023-02-28T13:38:54.634Z,3.68
2023-02-28T13:39:59.902Z,3.85
2023-02-28T13:41:23.147Z,3.59
2023-02-28T13:42:36.034Z,3.64
2023-02-28T13:43:58.127Z,4.06
2023-02-28T13:45:06.457Z,4.17
2023-02-28T13:46:11.454Z,4.41
2023-02-28T13:47:16.712Z,4.32
2023-02-28T13:48:21.270Z,4.23
2023-02-28T13:49:27.807Z,4.11
2023-02-28T13:50:32.989Z,4.13
2023-02-28T13:51:44.052Z,4.33
2023-02-28T13:52:49.800Z,4.34
2023-02-28T13:53:58.325Z,4.07
2023-02-28T13:55:04.634Z,4.00
2023-02-28T13:56:11.823Z,4.20
2023-02-28T13:57:26.875Z,4.15
2023-02-28T13:58:47.684Z,4.09
2023-02-28T13:59:54.621Z,4.22
2023-02-28T14:01:10.626Z,4.36
2023-02-28T14:02:17.897Z,4.27
2023-02-28T14:03:38.332Z,4.16
2023-02-28T14:04:59.749Z,4.01
2023-02-28T14:07:37.416Z,3.92
2023-02-28T14:08:42.789Z,3.92
2023-02-28T14:09:50.275Z,3.61
2023-02-28T14:10:55.581Z,3.62
2023-02-28T14:11:59.599Z,3.66
2023-02-28T14:13:04.990Z,3.95
2023-02-28T14:14:10.563Z,4.05
2023-02-28T14:15:30.488Z,4.15
2023-02-28T14:16:37.521Z,4.17
2023-02-28T14:17:43.019Z,4.35
2023-02-28T14:18:54.102Z,4.27
2023-02-28T14:19:59.364Z,4.23
2023-02-28T14:21:07.806Z,4.30
2023-02-28T14:22:14.890Z,4.24
2023-02-28T14:23:22.783Z,4.20
2023-02-28T14:24:47.293Z,3.93
2023-02-28T14:26:01.439Z,3.98
2023-02-28T14:27:11.630Z,3.86
2023-02-28T14:28:34.454Z,4.09
2023-02-28T14:29:55.926Z,3.99
2023-02-28T14:31:16.606Z,4.15
2023-02-28T14:32:33.410Z,4.00
2023-02-28T14:33:38.402Z,4.03
2023-02-28T14:34:49.010Z,4.05
2023-02-28T14:35:59.357Z,3.96
2023-02-28T14:37:02.926Z,3.80
2023-02-28T14:38:09.344Z,3.84
2023-02-28T14:39:18.291Z,3.91
2023-02-28T14:40:29.948Z,3.81
2023-02-28T14:41:36.939Z,3.77
2023-02-28T14:42:45.402Z,3.83
2023-02-28T14:43:53.607Z,3.86
2023-02-28T14:44:59.551Z,4.02
2023-02-28T14:46:04.904Z,4.04
2023-02-28T14:47:10.712Z,3.98
2023-02-28T14:48:15.983Z,3.93
2023-02-28T14:49:29.746Z,3.92
2023-02-28T14:50:34.170Z,3.86
2023-02-28T14:51:38.641Z,3.94